SBOSBO IAD / KIAD
Speedbird OnlineSpeedbird Online IAD / KIAD

Washington Dulles International Airport
03:59 22.2°C

Location Washington, United States
Latitude: 38.94449997
Longitude: -77.45580292
Local Time 04:00 on 18 Jul 2024
UTC -4 hours (America/New_York)
Currency £1 equals USD 1.30
METAR KIAD 180652Z 33006KT 10SM SCT120 BKN240 24/21 A2987 RMK AO2 SLP109 T02390211
TAF KIAD 180537Z 1806/1912 28005KT P6SM FEW030 BKN140 FM181400 34007KT P6SM BKN090 BKN250 FM190000 36004KT P6SM FEW100 SCT200
Weather As Of 18 Jul 2024 03:59
Description Broken clouds
Wind 7 km/h from North (10°)
Cloud Cover 75%
Precipitation Rain: none, Snow: none
Sunrise 05:59
Sunset 20:32
NOTAM 122 active NOTAM
Rebooking Mid Atlantic Winter Weather 18JAN24 - Customer Guidelines
Rotations During the last 90 days there were
159 flights from LHR
162 flights to LHR
Lounges British Airways Lounge , Concourse B
Turkish Airlines Lounge , Terminal B
Web Airport Website | Wikipedia
Codes IATA: IAD
ICAO: KIAD
Altitude 95 Meter / 312 Feet
Distance 5,938 KM / 3,690 Miles
from London.
Runways
RunwayLength (m)Surface
01C3506CONC-G
01L3506Concrete
01R3505Concrete
123201Concrete
19C3506CONC-G
19L3505Concrete
19R3506Concrete
303201Concrete
Radio
TypeDescriptionFrequency
APPPOTOMAC APP120.45
ATISATIS134.85
CLDCLNC DEL135.7
DEPPOTOMAC DEP125.05
GNDGND121.9
RCOARMEL RCO113.5
RMPRAMP CON129.55
TWRTWR120.1
UNICUNICOM122.95
Live ATC



Support Speedbird Online

© 2017-2024 Speedbird Online